createdAt,value
2022-11-07T00:02:03.002Z,69.29
2022-11-07T00:04:31.612Z,69.13
2022-11-07T00:07:08.681Z,69.04
2022-11-07T00:09:40.785Z,68.80
2022-11-07T00:12:08.195Z,68.57
2022-11-07T00:14:35.774Z,68.24
2022-11-07T00:17:03.184Z,67.97
2022-11-07T00:19:33.066Z,67.79
2022-11-07T00:22:00.876Z,67.64
2022-11-07T00:24:28.214Z,67.90
2022-11-07T00:26:56.148Z,67.69
2022-11-07T00:29:23.708Z,67.85
2022-11-07T00:31:50.975Z,67.34
2022-11-07T00:34:18.418Z,67.60
2022-11-07T00:36:45.765Z,67.06
2022-11-07T00:39:13.173Z,66.85
2022-11-07T00:41:40.891Z,67.12
2022-11-07T00:44:10.183Z,66.41
2022-11-07T00:46:37.294Z,66.83
2022-11-07T00:49:04.503Z,67.10
2022-11-07T00:51:32.376Z,66.69
2022-11-07T00:54:01.427Z,66.68
2022-11-07T00:56:37.798Z,66.32
2022-11-07T00:59:05.091Z,65.84
2022-11-07T01:01:36.790Z,66.40
2022-11-07T01:04:25.612Z,66.58
2022-11-07T01:06:52.385Z,66.23
2022-11-07T01:09:22.539Z,66.68
2022-11-07T01:11:50.060Z,66.72
2022-11-07T01:14:26.567Z,66.34
2022-11-07T01:16:59.015Z,66.25
2022-11-07T01:19:26.233Z,66.41
2022-11-07T01:21:53.568Z,66.72
2022-11-07T01:24:20.829Z,66.50
2022-11-07T01:26:48.212Z,66.66
2022-11-07T01:29:21.759Z,66.66
2022-11-07T01:31:49.046Z,66.66
2022-11-07T01:34:19.689Z,67.27
2022-11-07T01:36:49.056Z,67.64
2022-11-07T01:39:16.504Z,67.76
2022-11-07T01:41:43.761Z,67.94
2022-11-07T01:44:10.450Z,68.16
2022-11-07T01:46:41.651Z,68.30
2022-11-07T01:49:11.404Z,68.60
2022-11-07T01:51:44.251Z,68.66
2022-11-07T01:54:13.361Z,68.93
2022-11-07T01:56:43.277Z,68.77
2022-11-07T01:59:13.778Z,69.12
2022-11-07T02:01:41.716Z,69.06
2022-11-07T02:04:09.597Z,68.81
2022-11-07T02:07:04.617Z,69.15
2022-11-07T02:09:32.069Z,69.30
2022-11-07T02:12:01.135Z,69.40
2022-11-07T02:14:29.171Z,69.22
2022-11-07T02:16:57.039Z,69.63
2022-11-07T02:19:47.383Z,69.52
2022-11-07T02:22:34.661Z,69.77
2022-11-07T02:25:06.639Z,69.80
2022-11-07T02:27:34.704Z,69.99
2022-11-07T02:30:09.143Z,70.08
2022-11-07T02:32:36.069Z,70.38
2022-11-07T02:35:07.591Z,70.50
2022-11-07T02:37:37.611Z,70.45
2022-11-07T02:40:08.341Z,70.77
2022-11-07T02:42:44.156Z,70.65
2022-11-07T02:45:19.122Z,70.72
2022-11-07T02:47:46.051Z,71.02
2022-11-07T02:50:15.394Z,71.73
2022-11-07T02:52:42.467Z,71.56
2022-11-07T02:55:10.173Z,71.89
2022-11-07T02:57:36.993Z,72.20
2022-11-07T03:00:05.309Z,72.47
2022-11-07T03:02:32.160Z,72.82
2022-11-07T03:04:59.147Z,73.73
2022-11-07T03:07:26.061Z,73.81
2022-11-07T03:09:53.549Z,73.62
2022-11-07T03:12:20.656Z,73.85
2022-11-07T03:14:47.410Z,74.00
2022-11-07T03:17:14.182Z,74.22
2022-11-07T03:19:40.956Z,74.72
2022-11-07T03:22:07.711Z,74.81
2022-11-07T03:24:34.424Z,74.95
2022-11-07T03:27:01.163Z,75.25
2022-11-07T03:29:27.879Z,75.15
2022-11-07T03:31:54.699Z,75.38
2022-11-07T03:34:21.432Z,75.49
2022-11-07T03:36:48.266Z,75.50
2022-11-07T03:39:15.056Z,75.81
2022-11-07T03:41:41.849Z,75.87
2022-11-07T03:44:08.627Z,75.83
2022-11-07T03:46:35.387Z,75.98
2022-11-07T03:49:02.161Z,75.92
2022-11-07T03:51:28.889Z,75.72
2022-11-07T03:53:55.621Z,75.56
2022-11-07T03:56:22.909Z,75.87
2022-11-07T03:58:49.873Z,76.08
2022-11-07T04:01:16.803Z,76.15
2022-11-07T04:03:43.634Z,76.20
2022-11-07T04:06:10.403Z,76.41
2022-11-07T04:08:37.233Z,76.24
2022-11-07T04:11:03.967Z,76.13
2022-11-07T04:13:48.883Z,76.26
2022-11-07T04:16:37.035Z,76.31
2022-11-07T04:19:04.348Z,76.02
2022-11-07T04:21:31.110Z,76.19
2022-11-07T04:23:57.812Z,76.54
2022-11-07T04:26:43.235Z,76.70
2022-11-07T04:29:09.957Z,76.25
2022-11-07T04:31:36.643Z,76.50
2022-11-07T04:34:03.348Z,76.75
2022-11-07T04:36:30.122Z,76.98
2022-11-07T04:38:56.865Z,77.10
2022-11-07T04:41:24.466Z,77.16
2022-11-07T04:43:51.788Z,77.11
2022-11-07T04:46:18.649Z,77.15
2022-11-07T04:48:45.482Z,77.07
2022-11-07T04:51:18.160Z,76.88
2022-11-07T04:53:44.947Z,76.75
2022-11-07T04:56:11.709Z,76.60
2022-11-07T04:58:38.464Z,76.76
2022-11-07T05:01:05.284Z,76.68
2022-11-07T05:03:32.012Z,76.55
2022-11-07T05:05:59.394Z,76.86
2022-11-07T05:08:26.121Z,76.79
2022-11-07T05:10:53.003Z,76.97
2022-11-07T05:13:19.698Z,77.13
2022-11-07T05:15:46.568Z,77.32
2022-11-07T05:18:13.357Z,77.70
2022-11-07T05:20:40.324Z,77.85
2022-11-07T05:23:15.694Z,77.95
2022-11-07T05:25:45.077Z,77.89
2022-11-07T05:28:13.867Z,78.09
2022-11-07T05:30:42.192Z,77.93
2022-11-07T05:33:10.535Z,78.07
2022-11-07T05:35:37.663Z,78.12
2022-11-07T05:38:04.658Z,78.05
2022-11-07T05:40:32.295Z,77.83
2022-11-07T05:43:00.799Z,77.80
2022-11-07T05:45:28.736Z,78.01
2022-11-07T05:48:03.433Z,77.49
2022-11-07T05:50:30.631Z,77.63
2022-11-07T05:52:58.308Z,77.53
2022-11-07T05:55:26.382Z,77.37
2022-11-07T05:57:54.120Z,77.12
2022-11-07T06:00:21.073Z,77.03
2022-11-07T06:03:00.615Z,77.36
2022-11-07T06:05:29.108Z,77.35
2022-11-07T06:07:56.130Z,77.67
2022-11-07T06:10:24.229Z,77.63
2022-11-07T06:13:02.022Z,78.04
2022-11-07T06:15:30.866Z,78.32
2022-11-07T06:18:01.902Z,78.65
2022-11-07T06:20:28.784Z,79.93
2022-11-07T06:22:59.846Z,79.18
2022-11-07T06:25:27.095Z,79.99
2022-11-07T06:27:54.253Z,79.07
2022-11-07T06:30:21.046Z,79.53
2022-11-07T06:32:47.828Z,79.70
2022-11-07T06:35:14.675Z,80.19
2022-11-07T06:37:41.538Z,80.61
2022-11-07T06:40:09.364Z,80.13
2022-11-07T06:42:36.328Z,80.24
2022-11-07T06:45:03.316Z,80.40
2022-11-07T06:47:30.058Z,80.50
2022-11-07T06:49:56.890Z,80.35
2022-11-07T06:52:23.766Z,80.39
2022-11-07T06:54:50.606Z,80.24
2022-11-07T06:57:17.349Z,80.28
2022-11-07T06:59:50.436Z,80.25
2022-11-07T07:02:37.298Z,80.29
2022-11-07T07:05:05.700Z,80.26
2022-11-07T07:07:32.884Z,80.42
2022-11-07T07:09:59.790Z,80.49
2022-11-07T07:12:26.747Z,80.59
2022-11-07T07:14:53.566Z,80.48
2022-11-07T07:17:20.308Z,80.66
2022-11-07T07:19:47.121Z,80.95
2022-11-07T07:22:14.392Z,80.95
2022-11-07T07:24:41.191Z,81.03
2022-11-07T07:27:07.968Z,81.05
2022-11-07T07:29:35.967Z,80.83
2022-11-07T07:32:02.771Z,80.71
2022-11-07T07:34:29.585Z,80.59
2022-11-07T07:36:56.414Z,80.65
2022-11-07T07:39:24.597Z,80.57
2022-11-07T07:41:51.474Z,80.20
2022-11-07T07:44:21.389Z,80.25
2022-11-07T07:46:48.147Z,80.18
2022-11-07T07:49:14.944Z,80.08
2022-11-07T07:51:41.784Z,79.96
2022-11-07T07:54:10.542Z,79.58
2022-11-07T07:56:37.501Z,79.58
2022-11-07T07:59:04.744Z,79.52
2022-11-07T08:01:31.641Z,79.42
2022-11-07T08:04:02.043Z,79.47
2022-11-07T08:06:30.289Z,79.24
2022-11-07T08:08:57.125Z,79.16
2022-11-07T08:11:23.984Z,79.10
2022-11-07T08:13:50.731Z,78.87
2022-11-07T08:16:17.761Z,78.75
2022-11-07T08:18:44.493Z,78.59
2022-11-07T08:21:11.351Z,78.50
2022-11-07T08:23:38.177Z,78.39
2022-11-07T08:26:05.476Z,78.28
2022-11-07T08:28:35.498Z,78.07
2022-11-07T08:31:12.040Z,77.86
2022-11-07T08:33:39.332Z,77.63
2022-11-07T08:36:07.219Z,77.29
2022-11-07T08:38:35.514Z,77.05
2022-11-07T08:41:02.644Z,76.61
2022-11-07T08:43:29.752Z,76.33
2022-11-07T08:45:56.514Z,76.51
2022-11-07T08:48:23.785Z,76.04
2022-11-07T08:50:55.255Z,75.88
2022-11-07T08:53:23.329Z,75.50
2022-11-07T08:55:50.362Z,75.49
2022-11-07T08:58:17.950Z,75.52
2022-11-07T09:00:44.986Z,75.21
2022-11-07T09:06:01.293Z,75.11
2022-11-07T09:08:28.314Z,74.83
2022-11-07T09:10:55.132Z,75.04
2022-11-07T09:13:21.986Z,74.71
2022-11-07T09:15:51.304Z,74.28
2022-11-07T09:18:19.747Z,74.68
2022-11-07T09:20:47.399Z,74.91
2022-11-07T09:23:14.604Z,74.33
2022-11-07T09:25:41.973Z,74.58
2022-11-07T09:28:09.392Z,74.66
2022-11-07T09:30:36.415Z,74.58
2022-11-07T09:33:03.269Z,74.47
2022-11-07T09:35:30.044Z,73.58
2022-11-07T09:37:56.844Z,72.85
2022-11-07T09:40:48.840Z,73.06
2022-11-07T09:43:24.792Z,72.72
2022-11-07T09:46:01.404Z,72.52
2022-11-07T09:48:37.273Z,72.14
2022-11-07T09:51:04.879Z,71.31
2022-11-07T09:53:36.901Z,71.72
2022-11-07T09:56:05.290Z,71.72
2022-11-07T09:58:40.819Z,71.33
2022-11-07T10:01:13.483Z,70.91
2022-11-07T10:03:49.039Z,71.24
2022-11-07T10:06:36.752Z,70.95
2022-11-07T10:09:23.741Z,70.44
2022-11-07T10:11:50.478Z,70.44
2022-11-07T10:14:30.775Z,69.89
2022-11-07T10:17:00.546Z,69.41
2022-11-07T10:19:39.561Z,70.14
2022-11-07T10:22:26.526Z,69.03
2022-11-07T10:25:31.108Z,69.64
2022-11-07T10:28:19.551Z,70.00
2022-11-07T10:30:51.516Z,69.51
2022-11-07T10:33:44.936Z,68.32
2022-11-07T10:36:25.069Z,68.55
2022-11-07T10:38:52.202Z,69.26
2022-11-07T10:41:20.613Z,69.11
2022-11-07T10:44:00.961Z,68.60
2022-11-07T10:46:39.107Z,68.49
2022-11-07T10:49:20.262Z,68.25
2022-11-07T10:51:47.281Z,67.01
2022-11-07T10:54:26.213Z,66.20
2022-11-07T10:57:07.324Z,66.67
2022-11-07T10:59:36.753Z,65.83
2022-11-07T11:02:21.782Z,66.27
2022-11-07T11:04:55.185Z,66.18
2022-11-07T11:07:28.390Z,65.16
2022-11-07T11:09:57.881Z,65.57
2022-11-07T11:12:33.951Z,65.10
2022-11-07T11:15:04.216Z,65.01
2022-11-07T11:17:31.312Z,65.85
2022-11-07T11:19:58.254Z,66.04
2022-11-07T11:22:25.930Z,65.64
2022-11-07T11:25:20.006Z,65.65
2022-11-07T11:27:56.390Z,65.41
2022-11-07T11:30:24.107Z,65.55
2022-11-07T11:33:05.491Z,65.07
2022-11-07T11:35:49.849Z,65.52
2022-11-07T11:38:38.575Z,65.21
2022-11-07T11:41:32.929Z,65.30
2022-11-07T11:44:16.514Z,65.84
2022-11-07T11:47:00.830Z,65.92
2022-11-07T11:49:50.286Z,66.23
2022-11-07T11:52:21.879Z,65.85
2022-11-07T11:54:51.430Z,66.69
2022-11-07T11:57:24.314Z,66.68
2022-11-07T12:00:16.763Z,66.50
2022-11-07T12:03:07.201Z,66.51
2022-11-07T12:05:45.866Z,66.50
2022-11-07T12:08:27.718Z,66.75
2022-11-07T12:11:13.408Z,66.86
2022-11-07T12:14:03.970Z,66.84
2022-11-07T12:16:41.776Z,66.99
2022-11-07T12:19:27.236Z,65.47
2022-11-07T12:21:59.347Z,66.47
2022-11-07T12:24:54.922Z,66.09
2022-11-07T12:27:27.888Z,66.38
2022-11-07T12:30:30.135Z,66.61
2022-11-07T12:33:16.718Z,66.27
2022-11-07T12:35:45.925Z,66.23
2022-11-07T12:38:27.857Z,65.83
2022-11-07T12:41:24.110Z,66.31
2022-11-07T12:44:12.027Z,66.00
2022-11-07T12:46:51.778Z,65.29
2022-11-07T12:49:57.047Z,65.16
2022-11-07T12:52:36.086Z,65.24
2022-11-07T12:55:16.403Z,65.39
2022-11-07T12:57:43.995Z,64.75
2022-11-07T13:00:30.738Z,64.34
2022-11-07T13:03:25.371Z,64.60
2022-11-07T13:06:18.609Z,64.92
2022-11-07T13:09:07.577Z,65.04
2022-11-07T13:12:06.457Z,65.01
2022-11-07T13:14:41.429Z,63.91
2022-11-07T13:17:20.190Z,64.43
2022-11-07T13:20:06.377Z,64.79
2022-11-07T13:22:41.215Z,65.05
2022-11-07T13:25:17.039Z,65.04
2022-11-07T13:28:01.681Z,64.43
2022-11-07T13:30:31.053Z,64.97
2022-11-07T13:32:59.268Z,64.82
2022-11-07T13:35:34.105Z,64.56
2022-11-07T13:38:08.485Z,64.52
2022-11-07T13:40:49.593Z,64.63
2022-11-07T13:43:26.909Z,64.69
2022-11-07T13:46:01.306Z,64.90
2022-11-07T13:48:40.182Z,64.61
2022-11-07T13:51:34.073Z,64.29
2022-11-07T13:54:06.574Z,64.65
2022-11-07T13:56:40.468Z,64.89
2022-11-07T13:59:14.244Z,64.82
2022-11-07T14:01:43.391Z,64.45
2022-11-07T14:04:20.120Z,64.47
2022-11-07T14:06:47.683Z,64.71
2022-11-07T14:09:18.087Z,64.40
2022-11-07T14:11:46.851Z,64.41
2022-11-07T14:14:15.237Z,64.48
2022-11-07T14:16:46.116Z,64.90
2022-11-07T14:19:27.381Z,64.57
2022-11-07T14:21:55.777Z,64.99
2022-11-07T14:24:28.859Z,64.29
2022-11-07T14:27:05.555Z,64.72
2022-11-07T14:29:33.433Z,65.10
2022-11-07T14:32:06.642Z,64.97
2022-11-07T14:34:45.010Z,65.03
2022-11-07T14:37:16.916Z,65.21
2022-11-07T14:39:44.954Z,65.25
2022-11-07T14:42:17.717Z,65.49
2022-11-07T14:44:54.467Z,65.59
2022-11-07T14:47:29.213Z,65.61
2022-11-07T14:49:57.698Z,65.69
2022-11-07T14:52:40.700Z,65.69
2022-11-07T14:55:37.156Z,65.66
2022-11-07T14:58:05.823Z,66.26
2022-11-07T15:00:34.028Z,66.51
2022-11-07T15:03:01.153Z,66.47
2022-11-07T15:05:45.101Z,66.54
2022-11-07T15:08:28.521Z,66.61
2022-11-07T15:11:03.872Z,66.95
2022-11-07T15:13:35.056Z,67.12
2022-11-07T15:16:38.979Z,67.40
2022-11-07T15:19:08.889Z,67.35
2022-11-07T15:21:50.832Z,67.34
2022-11-07T15:24:34.555Z,67.60
2022-11-07T15:27:17.086Z,67.67
2022-11-07T15:30:13.601Z,67.70
2022-11-07T15:32:43.225Z,67.89
2022-11-07T15:35:37.992Z,68.01
2022-11-07T15:38:03.093Z,67.99
2022-11-07T15:40:30.361Z,68.22
2022-11-07T15:42:57.412Z,68.16
2022-11-07T15:45:24.774Z,68.33
2022-11-07T15:47:51.872Z,68.10
2022-11-07T15:50:24.863Z,68.43
2022-11-07T15:52:54.424Z,68.63
2022-11-07T15:55:23.180Z,68.82
2022-11-07T15:57:52.423Z,68.70
2022-11-07T16:00:22.389Z,69.08
2022-11-07T16:02:52.368Z,69.29
2022-11-07T16:05:19.361Z,69.37
2022-11-07T16:07:46.612Z,69.42
2022-11-07T16:10:21.730Z,69.32
2022-11-07T16:12:49.494Z,69.60
2022-11-07T16:15:17.873Z,69.83
2022-11-07T16:17:44.872Z,69.82
2022-11-07T16:20:21.593Z,69.90
2022-11-07T16:22:50.103Z,69.78
2022-11-07T16:25:22.037Z,69.69
2022-11-07T16:27:59.554Z,69.73
2022-11-07T16:30:27.626Z,69.84
2022-11-07T16:32:54.738Z,69.70
2022-11-07T16:35:22.351Z,69.62
2022-11-07T16:37:49.568Z,69.71
2022-11-07T16:40:19.328Z,69.78
2022-11-07T16:42:47.482Z,69.67
2022-11-07T16:45:16.480Z,69.65
2022-11-07T16:47:46.417Z,69.76
2022-11-07T16:50:15.798Z,69.72
2022-11-07T16:52:43.728Z,70.01
2022-11-07T16:55:20.147Z,69.83
2022-11-07T16:57:49.876Z,69.80
2022-11-07T17:00:19.061Z,69.73
2022-11-07T17:02:46.391Z,69.70
2022-11-07T17:05:20.495Z,69.71
2022-11-07T17:07:49.403Z,69.78
2022-11-07T17:10:17.629Z,69.64
2022-11-07T17:12:44.535Z,69.83
2022-11-07T17:15:11.769Z,69.62
2022-11-07T17:17:40.490Z,69.67
2022-11-07T17:20:07.965Z,69.71
2022-11-07T17:22:34.684Z,69.76
2022-11-07T17:25:01.462Z,69.63
2022-11-07T17:27:28.307Z,70.02
2022-11-07T17:29:55.406Z,70.25
2022-11-07T17:32:25.442Z,69.96
2022-11-07T17:35:10.998Z,70.31
2022-11-07T17:37:39.508Z,70.27
2022-11-07T17:40:06.896Z,70.41
2022-11-07T17:42:37.832Z,70.39
2022-11-07T17:45:06.158Z,70.46
2022-11-07T17:47:34.486Z,70.38
2022-11-07T17:50:01.599Z,70.47
2022-11-07T17:52:28.309Z,70.87
2022-11-07T17:54:55.116Z,70.92
2022-11-07T17:57:22.264Z,70.94
2022-11-07T17:59:49.436Z,71.01
2022-11-07T18:02:18.113Z,71.03
2022-11-07T18:04:45.696Z,71.06
2022-11-07T18:07:13.083Z,71.29
2022-11-07T18:09:41.313Z,71.25
2022-11-07T18:12:09.154Z,71.31
2022-11-07T18:14:36.670Z,71.30
2022-11-07T18:17:03.913Z,71.23
2022-11-07T18:19:31.023Z,71.18
2022-11-07T18:21:58.385Z,71.22
2022-11-07T18:24:25.221Z,71.24
2022-11-07T18:26:52.167Z,71.16
2022-11-07T18:29:19.695Z,71.23
2022-11-07T18:31:50.736Z,71.36
2022-11-07T18:34:17.584Z,71.41
2022-11-07T18:36:45.654Z,71.37
2022-11-07T18:39:18.507Z,71.45
2022-11-07T18:41:45.320Z,71.30
2022-11-07T18:44:12.548Z,71.11
2022-11-07T18:46:39.693Z,71.13
2022-11-07T18:49:07.292Z,71.00
2022-11-07T18:51:34.610Z,71.15
2022-11-07T18:54:03.203Z,71.08
2022-11-07T18:56:30.235Z,71.05
2022-11-07T18:58:57.293Z,70.90
2022-11-07T19:01:28.436Z,70.89
2022-11-07T19:03:56.648Z,70.80
2022-11-07T19:06:25.389Z,70.95
2022-11-07T19:08:52.398Z,71.01
2022-11-07T19:11:28.794Z,70.96
2022-11-07T19:13:59.767Z,70.74
2022-11-07T19:16:26.650Z,70.77
2022-11-07T19:18:53.439Z,70.86
2022-11-07T19:21:21.596Z,70.77
2022-11-07T19:23:50.052Z,71.00
2022-11-07T19:26:19.158Z,70.84
2022-11-07T19:28:46.513Z,70.85
2022-11-07T19:31:14.058Z,70.58
2022-11-07T19:33:41.943Z,70.91
2022-11-07T19:36:16.692Z,70.90
2022-11-07T19:38:44.342Z,71.12
2022-11-07T19:41:12.448Z,71.27
2022-11-07T19:43:39.992Z,71.46
2022-11-07T19:46:09.885Z,71.52
2022-11-07T19:48:37.088Z,71.69
2022-11-07T19:51:08.449Z,71.95
2022-11-07T19:53:35.199Z,71.91
2022-11-07T19:56:08.733Z,72.13
2022-11-07T19:58:39.186Z,72.17
2022-11-07T20:01:10.853Z,72.13
2022-11-07T20:03:37.740Z,72.09
2022-11-07T20:06:04.886Z,72.16
2022-11-07T20:08:31.617Z,72.56
2022-11-07T20:10:58.325Z,72.72
2022-11-07T20:13:25.073Z,72.89
2022-11-07T20:15:51.780Z,73.01
2022-11-07T20:18:18.583Z,73.18
2022-11-07T20:20:45.345Z,73.24
2022-11-07T20:23:12.074Z,73.47
2022-11-07T20:25:42.002Z,73.71
2022-11-07T20:28:09.272Z,73.66
2022-11-07T20:30:36.026Z,73.71
2022-11-07T20:33:02.780Z,73.95
2022-11-07T20:35:29.563Z,73.90
2022-11-07T20:37:59.522Z,74.10
2022-11-07T20:40:29.148Z,73.99
2022-11-07T20:42:56.303Z,74.00
2022-11-07T20:45:23.019Z,74.12
2022-11-07T20:47:50.689Z,74.11
2022-11-07T20:50:17.501Z,74.07
2022-11-07T20:52:44.218Z,74.07
2022-11-07T20:55:11.782Z,74.28
2022-11-07T20:57:38.524Z,74.47
2022-11-07T21:00:05.775Z,74.54
2022-11-07T21:02:32.543Z,74.68
2022-11-07T21:07:48.311Z,74.82
2022-11-07T21:10:15.211Z,74.74
2022-11-07T21:12:42.912Z,74.76
2022-11-07T21:15:10.442Z,74.72
2022-11-07T21:17:37.414Z,74.84
2022-11-07T21:20:05.254Z,74.82
2022-11-07T21:22:32.456Z,75.09
2022-11-07T21:24:59.219Z,75.00
2022-11-07T21:27:25.990Z,75.10
2022-11-07T21:29:52.762Z,75.01
2022-11-07T21:32:19.455Z,75.01
2022-11-07T21:34:47.358Z,74.96
2022-11-07T21:37:14.095Z,74.99
2022-11-07T21:39:40.864Z,74.96
2022-11-07T21:42:07.575Z,75.00
2022-11-07T21:44:34.312Z,75.17
2022-11-07T21:47:01.112Z,75.02
2022-11-07T21:49:27.931Z,75.07
2022-11-07T21:51:56.966Z,75.05
2022-11-07T21:54:24.780Z,74.97
2022-11-07T21:56:51.591Z,75.13
2022-11-07T21:59:19.173Z,75.15
2022-11-07T22:01:48.814Z,75.51
2022-11-07T22:04:16.049Z,75.45
2022-11-07T22:06:45.127Z,75.44
2022-11-07T22:09:15.397Z,75.38
2022-11-07T22:11:42.260Z,75.25
2022-11-07T22:14:13.576Z,75.10
2022-11-07T22:16:40.436Z,75.20
2022-11-07T22:19:12.015Z,75.14
2022-11-07T22:21:39.885Z,75.09
2022-11-07T22:24:07.016Z,75.08
2022-11-07T22:26:33.762Z,75.23
2022-11-07T22:29:00.567Z,75.32
2022-11-07T22:31:30.381Z,75.18
2022-11-07T22:33:59.690Z,75.30
2022-11-07T22:36:26.557Z,75.39
2022-11-07T22:38:53.386Z,75.38
2022-11-07T22:41:24.700Z,75.53
2022-11-07T22:43:51.798Z,75.93
2022-11-07T22:46:21.372Z,75.76
2022-11-07T22:48:49.007Z,75.76
2022-11-07T22:51:19.912Z,75.63
2022-11-07T22:53:46.963Z,75.59
2022-11-07T22:56:15.848Z,75.67
2022-11-07T22:58:43.371Z,75.75
2022-11-07T23:01:25.334Z,75.71
2022-11-07T23:03:52.903Z,75.53
2022-11-07T23:06:20.421Z,75.50
2022-11-07T23:08:48.352Z,75.76
2022-11-07T23:11:52.887Z,75.88
2022-11-07T23:14:08.778Z,75.92
2022-11-07T23:16:40.373Z,76.12
2022-11-07T23:19:10.943Z,76.32
2022-11-07T23:21:37.740Z,76.24
2022-11-07T23:24:04.982Z,76.27
2022-11-07T23:26:35.526Z,76.34
2022-11-07T23:29:10.121Z,76.31
2022-11-07T23:31:39.486Z,76.35
2022-11-07T23:34:06.723Z,76.31
2022-11-07T23:36:33.607Z,76.30
2022-11-07T23:39:08.020Z,76.63
2022-11-07T23:41:35.035Z,76.73
2022-11-07T23:44:02.377Z,76.45
2022-11-07T23:46:47.738Z,76.45
2022-11-07T23:49:33.036Z,76.33
2022-11-07T23:51:59.817Z,76.56
2022-11-07T23:54:45.343Z,76.57
2022-11-07T23:57:12.105Z,76.43
2022-11-07T23:59:57.678Z,76.58
